createdAt,value
2022-11-27T00:01:22.687Z,89.60
2022-11-27T00:03:50.379Z,93.03
2022-11-27T00:06:20.659Z,92.37
2022-11-27T00:08:48.460Z,86.87
2022-11-27T00:11:20.753Z,91.23
2022-11-27T00:13:48.638Z,91.07
2022-11-27T00:16:17.263Z,100.37
2022-11-27T00:18:44.505Z,86.73
2022-11-27T00:21:14.215Z,89.67
2022-11-27T00:23:41.639Z,98.10
2022-11-27T00:26:08.893Z,97.87
2022-11-27T00:28:36.585Z,96.57
2022-11-27T00:31:09.235Z,90.33
2022-11-27T00:33:37.483Z,85.03
2022-11-27T00:36:05.852Z,92.00
2022-11-27T00:38:37.386Z,90.67
2022-11-27T00:41:09.585Z,84.60
2022-11-27T00:43:43.956Z,91.00
2022-11-27T00:46:16.510Z,91.23
2022-11-27T00:48:44.573Z,98.83
2022-11-27T00:51:15.391Z,90.97
2022-11-27T00:53:43.578Z,97.83
2022-11-27T00:56:16.181Z,94.87
2022-11-27T00:58:43.386Z,96.17
2022-11-27T01:01:17.647Z,84.03
2022-11-27T01:03:46.001Z,89.37
2022-11-27T01:06:13.862Z,89.63
2022-11-27T01:08:41.248Z,84.77
2022-11-27T01:11:13.671Z,93.07
2022-11-27T01:13:40.678Z,89.00
2022-11-27T01:16:10.514Z,91.43
2022-11-27T01:18:39.729Z,91.20
2022-11-27T01:21:07.091Z,90.23
2022-11-27T01:23:34.619Z,90.60
2022-11-27T01:26:05.762Z,90.67
2022-11-27T01:28:33.520Z,103.57
2022-11-27T01:31:09.123Z,90.30
2022-11-27T01:33:36.274Z,91.40
2022-11-27T01:36:06.452Z,93.37
2022-11-27T01:38:34.111Z,100.27
2022-11-27T01:41:03.890Z,118.10
2022-11-27T01:43:41.916Z,97.40
2022-11-27T01:46:27.094Z,93.20
2022-11-27T01:48:58.580Z,96.43
2022-11-27T01:51:25.651Z,90.10
2022-11-27T01:53:54.155Z,104.90
2022-11-27T01:56:23.840Z,100.27
2022-11-27T01:58:51.752Z,97.43
2022-11-27T02:01:18.905Z,100.23
2022-11-27T02:03:46.034Z,110.17
2022-11-27T02:06:13.852Z,109.60
2022-11-27T02:08:42.243Z,107.43
2022-11-27T02:11:14.791Z,90.23
2022-11-27T02:13:56.737Z,91.63
2022-11-27T02:16:44.200Z,98.33
2022-11-27T02:19:39.026Z,97.23
2022-11-27T02:22:18.255Z,92.80
2022-11-27T02:25:06.958Z,102.40
2022-11-27T02:27:34.551Z,105.33
2022-11-27T02:30:04.401Z,94.73
2022-11-27T02:32:47.360Z,107.73
2022-11-27T02:35:23.204Z,105.30
2022-11-27T02:38:14.728Z,107.63
2022-11-27T02:40:53.716Z,95.90
2022-11-27T02:43:37.749Z,97.57
2022-11-27T02:46:08.025Z,110.47
2022-11-27T02:48:39.591Z,109.67
2022-11-27T02:51:07.639Z,105.07
2022-11-27T02:53:42.640Z,94.87
2022-11-27T02:56:15.228Z,95.13
2022-11-27T02:58:42.349Z,99.93
2022-11-27T03:01:12.428Z,102.47
2022-11-27T03:03:44.548Z,105.77
2022-11-27T03:06:19.019Z,98.67
2022-11-27T03:08:54.899Z,95.97
2022-11-27T03:11:23.041Z,95.40
2022-11-27T03:13:54.224Z,100.63
2022-11-27T03:16:46.021Z,94.90
2022-11-27T03:19:38.977Z,105.20
2022-11-27T03:22:06.095Z,94.37
2022-11-27T03:24:34.837Z,105.20
2022-11-27T03:27:03.623Z,92.03
2022-11-27T03:29:30.309Z,92.83
2022-11-27T03:31:58.018Z,92.43
2022-11-27T03:34:25.330Z,97.33
2022-11-27T03:36:52.383Z,85.43
2022-11-27T03:39:20.427Z,89.93
2022-11-27T03:41:59.665Z,94.63
2022-11-27T03:44:33.983Z,92.10
2022-11-27T03:47:41.493Z,88.57
2022-11-27T03:50:39.129Z,89.97
2022-11-27T03:53:26.118Z,80.67
2022-11-27T03:56:12.059Z,93.17
2022-11-27T03:58:52.254Z,89.70
2022-11-27T04:01:22.688Z,96.23
2022-11-27T04:03:49.874Z,101.57
2022-11-27T04:06:17.336Z,95.80
2022-11-27T04:08:46.855Z,89.77
2022-11-27T04:11:14.749Z,104.60
2022-11-27T04:13:41.753Z,108.23
2022-11-27T04:16:08.761Z,104.13
2022-11-27T04:18:35.879Z,104.83
2022-11-27T04:21:02.749Z,107.07
2022-11-27T04:23:29.782Z,101.20
2022-11-27T04:25:56.589Z,105.37
2022-11-27T04:28:23.589Z,100.53
2022-11-27T04:30:54.845Z,105.20
2022-11-27T04:33:22.952Z,105.77
2022-11-27T04:35:51.281Z,105.77
2022-11-27T04:38:19.765Z,101.40
2022-11-27T04:40:46.578Z,100.07
2022-11-27T04:43:13.599Z,102.20
2022-11-27T04:45:41.245Z,114.90
2022-11-27T04:48:08.287Z,105.57
2022-11-27T04:50:35.084Z,104.43
2022-11-27T04:53:02.143Z,101.13
2022-11-27T04:55:28.987Z,99.43
2022-11-27T04:57:55.951Z,93.60
2022-11-27T05:00:22.762Z,111.47
2022-11-27T05:02:49.855Z,113.40
2022-11-27T05:05:17.262Z,106.73
2022-11-27T05:07:44.384Z,117.50
2022-11-27T05:10:11.617Z,121.47
2022-11-27T05:12:38.864Z,90.03
2022-11-27T05:15:06.332Z,129.17
2022-11-27T05:17:33.397Z,135.83
2022-11-27T05:20:00.168Z,115.53
2022-11-27T05:22:27.242Z,99.13
2022-11-27T05:24:53.956Z,100.53
2022-11-27T05:27:21.008Z,95.70
2022-11-27T05:29:47.774Z,114.87
2022-11-27T05:32:14.841Z,115.13
2022-11-27T05:34:41.844Z,100.77
2022-11-27T05:37:08.919Z,131.10
2022-11-27T05:39:35.690Z,107.97
2022-11-27T05:42:02.741Z,104.40
2022-11-27T05:44:29.549Z,98.47
2022-11-27T05:46:57.295Z,102.07
2022-11-27T05:49:24.183Z,100.10
2022-11-27T05:51:51.890Z,98.13
2022-11-27T05:54:19.562Z,102.60
2022-11-27T05:56:46.941Z,103.97
2022-11-27T05:59:14.209Z,108.77
2022-11-27T06:01:41.288Z,103.73
2022-11-27T06:04:08.143Z,92.23
2022-11-27T06:06:35.123Z,120.47
2022-11-27T06:09:01.877Z,105.20
2022-11-27T06:11:29.058Z,109.53
2022-11-27T06:13:55.794Z,117.43
2022-11-27T06:16:24.310Z,112.20
2022-11-27T06:18:56.049Z,118.90
2022-11-27T06:21:24.218Z,111.97
2022-11-27T06:23:55.412Z,121.10
2022-11-27T06:26:25.860Z,119.90
2022-11-27T06:28:54.228Z,115.73
2022-11-27T06:31:24.157Z,102.63
2022-11-27T06:33:53.808Z,120.23
2022-11-27T06:36:22.109Z,140.00
2022-11-27T06:38:48.855Z,111.40
2022-11-27T06:41:18.752Z,102.60
2022-11-27T06:43:45.936Z,131.93
2022-11-27T06:46:16.100Z,129.27
2022-11-27T06:48:45.207Z,120.43
2022-11-27T06:51:15.662Z,120.83
2022-11-27T06:53:43.523Z,122.33
2022-11-27T06:56:16.220Z,111.93
2022-11-27T06:58:43.206Z,111.27
2022-11-27T07:01:16.396Z,117.83
2022-11-27T07:03:43.989Z,109.63
2022-11-27T07:06:13.563Z,105.47
2022-11-27T07:08:40.288Z,103.87
2022-11-27T07:11:10.786Z,100.20
2022-11-27T07:13:37.637Z,94.63
2022-11-27T07:16:10.088Z,100.13
2022-11-27T07:18:48.762Z,83.57
2022-11-27T07:21:15.880Z,95.07
2022-11-27T07:23:42.912Z,91.83
2022-11-27T07:26:13.764Z,83.80
2022-11-27T07:28:43.710Z,77.23
2022-11-27T07:31:13.493Z,82.67
2022-11-27T07:33:40.271Z,79.30
2022-11-27T07:36:10.827Z,77.43
2022-11-27T07:38:37.621Z,83.70
2022-11-27T07:41:05.605Z,82.63
2022-11-27T07:43:33.838Z,86.57
2022-11-27T07:46:08.759Z,84.90
2022-11-27T07:48:35.543Z,82.83
2022-11-27T07:51:06.018Z,78.53
2022-11-27T07:53:36.623Z,95.90
2022-11-27T07:56:04.974Z,91.57
2022-11-27T07:58:31.898Z,92.57
2022-11-27T08:00:59.035Z,84.03
2022-11-27T08:03:25.956Z,97.27
2022-11-27T08:05:53.010Z,87.27
2022-11-27T08:08:19.746Z,91.20
2022-11-27T08:10:46.755Z,93.83
2022-11-27T08:13:13.447Z,81.13
2022-11-27T08:15:40.514Z,83.23
2022-11-27T08:18:07.203Z,77.37
2022-11-27T08:20:34.277Z,70.93
2022-11-27T08:23:03.074Z,70.70
2022-11-27T08:25:31.301Z,69.33
2022-11-27T08:27:58.262Z,69.97
2022-11-27T08:30:25.376Z,73.87
2022-11-27T08:32:52.278Z,67.93
2022-11-27T08:35:19.280Z,65.47
2022-11-27T08:37:46.407Z,68.17
2022-11-27T08:40:13.548Z,77.37
2022-11-27T08:42:40.320Z,73.90
2022-11-27T08:45:07.941Z,78.77
2022-11-27T08:47:34.832Z,74.63
2022-11-27T08:50:01.966Z,76.87
2022-11-27T08:52:28.769Z,66.67
2022-11-27T08:54:57.731Z,73.93
2022-11-27T08:57:25.039Z,67.40
2022-11-27T08:59:52.120Z,69.33
2022-11-27T09:02:18.909Z,69.87
2022-11-27T09:04:46.046Z,61.03
2022-11-27T09:07:15.351Z,88.83
2022-11-27T09:09:42.714Z,79.33
2022-11-27T09:12:09.808Z,92.43
2022-11-27T09:14:36.964Z,75.07
2022-11-27T09:17:04.025Z,68.37
2022-11-27T09:19:31.053Z,65.00
2022-11-27T09:21:57.826Z,62.80
2022-11-27T09:24:24.939Z,68.97
2022-11-27T09:26:51.898Z,66.37
2022-11-27T09:29:18.951Z,60.40
2022-11-27T09:31:45.772Z,61.43
2022-11-27T09:34:13.066Z,56.17
2022-11-27T09:36:39.769Z,54.90
2022-11-27T09:39:06.782Z,54.93
2022-11-27T09:41:45.371Z,50.97
2022-11-27T09:44:27.099Z,56.70
2022-11-27T09:46:56.486Z,53.77
2022-11-27T09:49:33.518Z,58.53
2022-11-27T09:52:11.630Z,56.33
2022-11-27T09:54:52.246Z,57.53
2022-11-27T09:57:26.957Z,51.00
2022-11-27T09:59:55.075Z,52.17
2022-11-27T10:02:28.757Z,55.27
2022-11-27T10:05:13.424Z,52.27
2022-11-27T10:08:07.084Z,55.30
2022-11-27T10:11:33.497Z,54.63
2022-11-27T10:14:22.910Z,50.00
2022-11-27T10:17:09.152Z,52.90
2022-11-27T10:19:38.973Z,51.90
2022-11-27T10:22:28.606Z,53.93
2022-11-27T10:25:14.050Z,50.00
2022-11-27T10:27:51.786Z,51.07
2022-11-27T10:30:21.255Z,52.47
2022-11-27T10:32:55.789Z,55.53
2022-11-27T10:35:25.515Z,52.30
2022-11-27T10:38:05.303Z,62.00
2022-11-27T10:40:41.928Z,62.57
2022-11-27T10:43:24.553Z,74.40
2022-11-27T10:45:56.331Z,57.30
2022-11-27T10:48:24.165Z,57.77
2022-11-27T10:50:51.522Z,59.97
2022-11-27T10:53:25.016Z,68.60
2022-11-27T10:56:15.157Z,56.90
2022-11-27T10:59:13.537Z,102.00
2022-11-27T11:01:47.286Z,60.77
2022-11-27T11:04:36.958Z,58.90
2022-11-27T11:07:23.855Z,57.40
2022-11-27T11:09:51.946Z,53.50
2022-11-27T11:12:21.563Z,65.23
2022-11-27T11:14:59.783Z,69.47
2022-11-27T11:17:30.769Z,67.27
2022-11-27T11:19:57.821Z,54.90
2022-11-27T11:22:24.847Z,56.27
2022-11-27T11:24:53.583Z,68.70
2022-11-27T11:27:26.469Z,66.70
2022-11-27T11:30:02.783Z,57.60
2022-11-27T11:32:34.804Z,62.50
2022-11-27T11:35:30.277Z,67.40
2022-11-27T11:37:58.889Z,101.47
2022-11-27T11:40:32.619Z,62.40
2022-11-27T11:43:02.628Z,68.10
2022-11-27T11:45:34.735Z,59.53
2022-11-27T11:48:23.975Z,86.70
2022-11-27T11:50:59.940Z,55.53
2022-11-27T11:53:38.424Z,59.10
2022-11-27T11:56:20.119Z,56.13
2022-11-27T11:59:15.002Z,57.87
2022-11-27T12:02:23.000Z,61.10
2022-11-27T12:05:03.924Z,52.57
2022-11-27T12:07:51.963Z,52.10
2022-11-27T12:10:40.899Z,60.00
2022-11-27T12:13:14.694Z,60.13
2022-11-27T12:15:41.342Z,60.60
2022-11-27T12:18:18.982Z,61.10
2022-11-27T12:21:04.773Z,70.87
2022-11-27T12:24:00.495Z,62.93
2022-11-27T12:26:41.630Z,68.00
2022-11-27T12:29:36.197Z,64.47
2022-11-27T12:32:33.638Z,69.97
2022-11-27T12:35:33.191Z,63.73
2022-11-27T12:38:28.692Z,63.83
2022-11-27T12:41:19.346Z,65.93
2022-11-27T12:44:00.379Z,69.47
2022-11-27T12:46:55.969Z,78.97
2022-11-27T12:49:29.873Z,69.43
2022-11-27T12:52:06.219Z,78.43
2022-11-27T12:54:37.907Z,82.10
2022-11-27T12:57:11.636Z,67.77
2022-11-27T12:59:46.290Z,79.20
2022-11-27T13:02:28.471Z,65.17
2022-11-27T13:05:50.291Z,76.03
2022-11-27T13:08:42.821Z,77.10
2022-11-27T13:11:13.918Z,83.43
2022-11-27T13:13:46.816Z,83.60
2022-11-27T13:16:19.861Z,81.40
2022-11-27T13:19:00.272Z,91.30
2022-11-27T13:21:30.938Z,85.97
2022-11-27T13:24:01.272Z,99.97
2022-11-27T13:26:37.143Z,92.20
2022-11-27T13:29:15.299Z,86.33
2022-11-27T13:31:44.422Z,79.90
2022-11-27T13:34:24.241Z,83.07
2022-11-27T13:37:04.872Z,87.47
2022-11-27T13:39:38.900Z,91.17
2022-11-27T13:42:16.984Z,76.97
2022-11-27T13:44:53.686Z,76.50
2022-11-27T13:47:23.626Z,70.63
2022-11-27T13:50:00.371Z,71.27
2022-11-27T13:52:27.271Z,71.57
2022-11-27T13:55:02.895Z,74.67
2022-11-27T13:57:31.284Z,80.73
2022-11-27T14:00:00.933Z,74.20
2022-11-27T14:02:47.247Z,73.50
2022-11-27T14:05:21.276Z,72.13
2022-11-27T14:07:54.046Z,68.20
2022-11-27T14:10:25.496Z,62.90
2022-11-27T14:13:01.666Z,67.43
2022-11-27T14:15:30.868Z,63.73
2022-11-27T14:18:09.440Z,77.70
2022-11-27T14:20:47.468Z,72.53
2022-11-27T14:23:14.521Z,70.77
2022-11-27T14:25:41.691Z,79.33
2022-11-27T14:28:16.603Z,76.27
2022-11-27T14:30:50.385Z,76.67
2022-11-27T14:33:26.082Z,72.13
2022-11-27T14:35:54.412Z,67.80
2022-11-27T14:38:22.573Z,63.07
2022-11-27T14:40:53.234Z,68.10
2022-11-27T14:43:26.248Z,79.53
2022-11-27T14:45:57.378Z,69.20
2022-11-27T14:48:24.196Z,69.17
2022-11-27T14:50:53.989Z,73.00
2022-11-27T14:53:23.871Z,73.70
2022-11-27T14:55:54.966Z,77.23
2022-11-27T14:58:27.482Z,75.60
2022-11-27T15:01:06.704Z,67.00
2022-11-27T15:03:34.418Z,68.17
2022-11-27T15:06:05.457Z,64.50
2022-11-27T15:08:36.011Z,66.00
2022-11-27T15:11:05.283Z,62.10
2022-11-27T15:13:35.860Z,64.03
2022-11-27T15:16:24.915Z,69.83
2022-11-27T15:19:05.134Z,64.90
2022-11-27T15:21:38.083Z,66.23
2022-11-27T15:24:05.030Z,153.90
2022-11-27T15:26:44.933Z,122.43
2022-11-27T15:29:30.915Z,80.03
2022-11-27T15:31:58.040Z,187.53
2022-11-27T15:34:24.844Z,87.77
2022-11-27T15:36:58.748Z,121.40
2022-11-27T15:39:51.853Z,171.20
2022-11-27T15:42:20.533Z,84.70
2022-11-27T15:44:49.187Z,77.67
2022-11-27T15:47:29.024Z,86.80
2022-11-27T15:49:56.019Z,98.03
2022-11-27T15:52:24.069Z,108.87
2022-11-27T15:54:51.415Z,80.80
2022-11-27T15:57:19.016Z,83.00
2022-11-27T15:59:45.947Z,97.80
2022-11-27T16:02:17.755Z,71.73
2022-11-27T16:04:45.516Z,74.30
2022-11-27T16:07:12.764Z,67.73
2022-11-27T16:09:40.101Z,72.60
2022-11-27T16:12:07.218Z,64.47
2022-11-27T16:14:33.981Z,62.70
2022-11-27T16:17:01.463Z,60.87
2022-11-27T16:19:28.492Z,62.73
2022-11-27T16:21:56.777Z,56.83
2022-11-27T16:24:23.640Z,66.63
2022-11-27T16:26:50.843Z,67.20
2022-11-27T16:29:17.767Z,69.20
2022-11-27T16:31:44.900Z,68.13
2022-11-27T16:34:14.550Z,76.50
2022-11-27T16:36:43.801Z,83.23
2022-11-27T16:39:12.137Z,84.83
2022-11-27T16:41:40.174Z,92.37
2022-11-27T16:44:15.028Z,84.53
2022-11-27T16:46:44.551Z,87.80
2022-11-27T16:49:12.324Z,96.43
2022-11-27T16:51:41.272Z,113.97
2022-11-27T16:54:12.530Z,104.37
2022-11-27T16:56:42.018Z,145.57
2022-11-27T16:59:10.769Z,186.63
2022-11-27T17:01:41.031Z,151.17
2022-11-27T17:04:10.071Z,170.93
2022-11-27T17:06:38.544Z,195.27
2022-11-27T17:09:07.697Z,149.17
2022-11-27T17:11:36.587Z,112.87
2022-11-27T17:14:07.793Z,98.37
2022-11-27T17:16:37.826Z,108.70
2022-11-27T17:19:04.883Z,115.13
2022-11-27T17:21:35.211Z,109.47
2022-11-27T17:24:14.684Z,101.93
2022-11-27T17:26:45.462Z,114.17
2022-11-27T17:29:15.256Z,149.00
2022-11-27T17:31:42.892Z,111.57
2022-11-27T17:34:13.310Z,120.07
2022-11-27T17:36:44.067Z,134.10
2022-11-27T17:39:13.343Z,132.00
2022-11-27T17:41:42.198Z,126.47
2022-11-27T17:44:08.963Z,127.30
2022-11-27T17:46:36.980Z,134.57
2022-11-27T17:49:07.426Z,122.33
2022-11-27T17:51:35.959Z,194.33
2022-11-27T17:54:05.288Z,134.07
2022-11-27T17:56:34.032Z,145.53
2022-11-27T17:59:01.628Z,125.20
2022-11-27T18:01:30.430Z,181.23
2022-11-27T18:04:03.840Z,151.87
2022-11-27T18:06:32.354Z,189.60
2022-11-27T18:09:00.103Z,129.40
2022-11-27T18:11:30.905Z,136.37
2022-11-27T18:14:01.366Z,161.50
2022-11-27T18:16:33.648Z,128.57
2022-11-27T18:19:04.706Z,185.17
2022-11-27T18:21:32.423Z,165.33
2022-11-27T18:24:23.862Z,405.57
2022-11-27T18:29:36.027Z,204.53
2022-11-27T18:32:03.303Z,187.37
2022-11-27T18:34:30.172Z,233.17
2022-11-27T18:36:59.510Z,295.07
2022-11-27T18:39:27.561Z,208.20
2022-11-27T18:41:54.941Z,189.63
2022-11-27T18:44:22.828Z,197.10
2022-11-27T18:46:50.653Z,186.97
2022-11-27T18:49:18.158Z,176.20
2022-11-27T18:51:46.486Z,212.87
2022-11-27T18:54:13.444Z,248.40
2022-11-27T18:56:40.620Z,230.03
2022-11-27T18:59:09.247Z,174.30
2022-11-27T19:01:42.319Z,161.50
2022-11-27T19:04:11.119Z,219.33
2022-11-27T19:06:39.326Z,245.20
2022-11-27T19:09:06.719Z,201.63
2022-11-27T19:11:35.143Z,259.57
2022-11-27T19:14:03.824Z,220.60
2022-11-27T19:16:36.180Z,169.40
2022-11-27T19:19:05.102Z,230.93
2022-11-27T19:21:33.663Z,157.63
2022-11-27T19:24:02.484Z,152.77
2022-11-27T19:26:35.232Z,179.60
2022-11-27T19:29:07.774Z,155.57
2022-11-27T19:31:37.946Z,205.43
2022-11-27T19:34:06.398Z,148.33
2022-11-27T19:36:35.550Z,159.27
2022-11-27T19:39:09.074Z,183.40
2022-11-27T19:41:36.165Z,161.23
2022-11-27T19:44:04.829Z,168.10
2022-11-27T19:46:35.695Z,171.70
2022-11-27T19:49:09.031Z,220.83
2022-11-27T19:51:37.954Z,187.93
2022-11-27T19:54:09.860Z,187.77
2022-11-27T19:56:40.242Z,178.07
2022-11-27T19:59:07.696Z,235.57
2022-11-27T20:01:35.978Z,217.53
2022-11-27T20:04:04.017Z,157.47
2022-11-27T20:06:31.600Z,185.57
2022-11-27T20:09:01.337Z,181.30
2022-11-27T20:11:34.224Z,208.03
2022-11-27T20:14:04.848Z,201.43
2022-11-27T20:16:34.235Z,163.63
2022-11-27T20:19:05.333Z,204.27
2022-11-27T20:21:34.749Z,228.77
2022-11-27T20:24:03.280Z,229.93
2022-11-27T20:26:30.593Z,213.17
2022-11-27T20:28:59.058Z,180.13
2022-11-27T20:31:32.291Z,171.37
2022-11-27T20:34:01.294Z,180.43
2022-11-27T20:36:30.524Z,186.37
2022-11-27T20:39:00.102Z,172.27
2022-11-27T20:41:29.581Z,204.47
2022-11-27T20:43:59.291Z,192.60
2022-11-27T20:46:27.442Z,190.43
2022-11-27T20:48:54.901Z,187.40
2022-11-27T20:51:30.805Z,227.53
2022-11-27T20:53:59.042Z,234.03
2022-11-27T20:56:26.491Z,182.53
2022-11-27T20:58:53.440Z,199.73
2022-11-27T21:01:23.550Z,204.67
2022-11-27T21:03:52.559Z,211.53
2022-11-27T21:06:23.431Z,208.47
2022-11-27T21:08:50.808Z,254.17
2022-11-27T21:11:29.939Z,264.30
2022-11-27T21:14:04.766Z,271.83
2022-11-27T21:16:35.383Z,254.63
2022-11-27T21:19:11.204Z,258.57
2022-11-27T21:21:38.959Z,339.33
2022-11-27T21:24:06.573Z,356.97
2022-11-27T21:26:33.686Z,321.90
2022-11-27T21:29:01.352Z,371.73
2022-11-27T21:31:35.926Z,281.63
2022-11-27T21:34:11.868Z,300.13
2022-11-27T21:36:39.393Z,284.40
2022-11-27T21:39:08.506Z,327.50
2022-11-27T21:41:36.559Z,329.30
2022-11-27T21:44:05.620Z,295.17
2022-11-27T21:46:33.865Z,317.03
2022-11-27T21:49:04.528Z,286.17
2022-11-27T21:51:31.643Z,331.60
2022-11-27T21:53:59.653Z,272.60
2022-11-27T21:56:28.876Z,274.57
2022-11-27T21:58:56.075Z,328.87
2022-11-27T22:01:25.344Z,273.50
2022-11-27T22:03:57.394Z,242.97
2022-11-27T22:06:27.814Z,253.40
2022-11-27T22:08:56.400Z,245.00
2022-11-27T22:11:30.269Z,226.47
2022-11-27T22:13:59.351Z,256.57
2022-11-27T22:16:31.944Z,219.90
2022-11-27T22:18:59.957Z,274.37
2022-11-27T22:21:29.293Z,235.87
2022-11-27T22:23:57.009Z,249.33
2022-11-27T22:26:25.392Z,222.83
2022-11-27T22:28:52.444Z,275.87
2022-11-27T22:31:23.209Z,244.40
2022-11-27T22:33:50.503Z,204.73
2022-11-27T22:36:32.510Z,186.37
2022-11-27T22:39:05.694Z,182.90
2022-11-27T22:41:36.536Z,183.27
2022-11-27T22:44:08.496Z,185.90
2022-11-27T22:46:36.692Z,187.43
2022-11-27T22:49:05.611Z,177.00
2022-11-27T22:51:35.002Z,178.60
2022-11-27T22:54:03.550Z,191.47
2022-11-27T22:56:33.538Z,172.10
2022-11-27T22:59:30.397Z,164.90
2022-11-27T23:01:48.722Z,164.40
2022-11-27T23:04:16.772Z,178.13
2022-11-27T23:06:48.053Z,181.80
2022-11-27T23:09:16.065Z,177.67
2022-11-27T23:11:43.155Z,179.00
2022-11-27T23:14:09.941Z,176.07
2022-11-27T23:16:37.196Z,178.07
2022-11-27T23:19:04.081Z,170.30
2022-11-27T23:21:32.769Z,207.53
2022-11-27T23:23:59.494Z,184.53
2022-11-27T23:26:26.604Z,178.00
2022-11-27T23:28:53.839Z,217.20
2022-11-27T23:31:31.997Z,203.47
2022-11-27T23:34:03.759Z,237.20
2022-11-27T23:36:31.878Z,241.43
2022-11-27T23:39:04.312Z,274.20
2022-11-27T23:41:32.001Z,259.97
2022-11-27T23:43:59.335Z,232.07
2022-11-27T23:46:29.380Z,201.60
2022-11-27T23:48:58.074Z,214.43
2022-11-27T23:51:28.047Z,214.50
2022-11-27T23:53:55.016Z,198.73
2022-11-27T23:56:24.858Z,185.87
2022-11-27T23:58:53.308Z,210.57
